Time;durP1;ratioP1;P1;durP2;ratioP2;P2;SDS_P1;SDS_P2;PMS_P1;PMS_P2;Temp;Humidity;BMP_temperature;BMP_pressure;BME280_temperature;BME280_humidity;BME280_pressure;Samples;Min_cycle;Max_cycle;Signal;HPM_P1;HPM_P2
2021/11/17 02:27:24;;;;;;;20.83;10.02;;;;;;;2.83;100.00;96050.97;5105270;27;20031;-43
2021/11/17 02:30:18;;;;;;;22.88;10.73;;;;;;;2.67;100.00;96044.16;5109337;28;20039;-48
2021/11/17 02:32:48;;;;;;;25.33;9.95;;;;;;;2.70;100.00;96040.94;5104504;28;20557;-43
2021/11/17 02:35:21;;;;;;;21.95;10.50;;;;;;;2.97;100.00;96043.09;5110450;28;20044;-44
2021/11/17 02:37:56;;;;;;;19.58;9.85;;;;;;;2.87;100.00;96051.22;5112128;28;20044;-45
2021/11/17 02:40:27;;;;;;;22.95;9.77;;;;;;;2.68;100.00;96043.88;5110247;28;20135;-45
2021/11/17 02:43:19;;;;;;;19.70;10.02;;;;;;;2.68;100.00;96054.56;5111388;28;20047;-43
2021/11/17 02:46:06;;;;;;;25.45;10.05;;;;;;;2.61;100.00;96050.59;5112580;28;20050;-44
2021/11/17 02:48:40;;;;;;;20.75;10.32;;;;;;;2.68;100.00;96045.75;5102463;28;20545;-43
2021/11/17 02:51:19;;;;;;;22.05;10.65;;;;;;;2.61;100.00;96047.94;5101144;28;20043;-43
2021/11/17 02:53:56;;;;;;;25.85;11.38;;;;;;;2.88;100.00;96052.78;5101495;28;20119;-49
2021/11/17 02:56:55;;;;;;;20.90;9.98;;;;;;;2.72;100.00;96049.44;5110955;28;20039;-45
2021/11/17 02:59:40;;;;;;;21.58;10.13;;;;;;;3.05;100.00;96061.19;5097719;28;20207;-43
2021/11/17 03:02:16;;;;;;;21.52;10.32;;;;;;;2.86;99.85;96061.09;5109877;28;20043;-47
2021/11/17 03:04:57;;;;;;;21.55;10.40;;;;;;;2.77;100.00;96058.22;5109857;28;20047;-43
2021/11/17 03:07:42;;;;;;;23.17;10.38;;;;;;;2.76;100.00;96059.31;5111438;28;20063;-43
2021/11/17 03:10:21;;;;;;;22.17;9.88;;;;;;;2.90;99.85;96054.13;5101540;28;20044;-44
2021/11/17 03:13:00;;;;;;;24.48;10.32;;;;;;;2.94;99.24;96059.69;5110007;28;20043;-43
2021/11/17 03:16:01;;;;;;;19.75;9.45;;;;;;;2.99;99.63;96049.78;5110378;28;20553;-49
2021/11/17 03:18:34;;;;;;;24.67;9.80;;;;;;;3.27;98.62;96055.38;5092222;28;20036;-42
2021/11/17 03:21:29;;;;;;;20.73;9.52;;;;;;;2.81;99.90;96053.91;5089387;28;20155;-46
2021/11/17 03:24:31;;;;;;;20.58;9.45;;;;;;;2.89;100.00;96055.19;5090566;27;20476;-43
2021/11/17 03:27:26;;;;;;;22.67;10.75;;;;;;;2.70;100.00;96057.75;5076787;28;20058;-42
2021/11/17 03:30:11;;;;;;;24.13;10.95;;;;;;;2.56;100.00;96062.09;5101965;28;20143;-42
2021/11/17 03:33:20;;;;;;;23.08;9.85;;;;;;;2.76;100.00;96066.50;5098360;28;20083;-44
2021/11/17 03:36:07;;;;;;;21.52;10.30;;;;;;;2.80;100.00;96056.88;5091273;28;20119;-48
2021/11/17 03:38:53;;;;;;;24.60;11.65;;;;;;;2.84;100.00;96055.22;5074923;28;20054;-44
2021/11/17 03:41:42;;;;;;;26.30;10.18;;;;;;;2.69;100.00;96061.47;5106915;28;20092;-43
2021/11/17 03:44:19;;;;;;;24.45;10.43;;;;;;;2.52;100.00;96058.41;5091342;28;20097;-43
2021/11/17 03:47:24;;;;;;;25.85;11.15;;;;;;;2.58;100.00;96063.44;5110847;28;20043;-49
2021/11/17 03:50:16;;;;;;;25.77;10.18;;;;;;;2.60;100.00;96071.19;5082953;28;20127;-45
2021/11/17 03:53:01;;;;;;;24.88;10.80;;;;;;;2.87;100.00;96073.38;5103644;28;20050;-49
2021/11/17 03:55:54;;;;;;;21.83;9.88;;;;;;;3.02;100.00;96078.63;5099549;28;20044;-46
2021/11/17 03:58:31;;;;;;;20.77;10.88;;;;;;;2.87;100.00;96078.72;5109608;28;20079;-46
2021/11/17 04:01:08;;;;;;;19.75;10.23;;;;;;;3.06;100.00;96072.72;5108620;28;20139;-49
2021/11/17 04:04:09;;;;;;;23.92;10.38;;;;;;;3.24;98.80;96080.00;5073208;28;20130;-44
2021/11/17 04:07:13;;;;;;;23.55;10.20;;;;;;;3.45;98.02;96077.97;5091416;28;20050;-43
2021/11/17 04:09:58;;;;;;;22.73;9.82;;;;;;;3.31;98.27;96069.78;5091227;28;20135;-44
2021/11/17 04:12:47;;;;;;;26.23;10.32;;;;;;;3.32;98.33;96068.72;5109049;28;20035;-50
2021/11/17 04:15:23;;;;;;;23.67;10.52;;;;;;;2.95;100.00;96070.09;5100126;28;20048;-44
2021/11/17 04:18:05;;;;;;;25.95;10.45;;;;;;;3.00;100.00;96067.38;5092000;28;20063;-46
2021/11/17 04:20:38;;;;;;;26.25;10.95;;;;;;;3.40;98.89;96076.13;5109921;28;20210;-44
2021/11/17 04:23:15;;;;;;;28.08;11.52;;;;;;;3.57;98.17;96082.91;5109470;28;20070;-45
2021/11/17 04:25:41;;;;;;;23.75;11.40;;;;;;;3.48;97.74;96083.53;5058787;28;20178;-47
2021/11/17 04:28:38;;;;;;;25.55;11.27;;;;;;;3.36;98.08;96074.31;5105712;28;20078;-49
2021/11/17 04:31:46;;;;;;;21.23;10.15;;;;;;;3.26;98.66;96076.00;5110588;28;20044;-49
2021/11/17 04:34:36;;;;;;;21.92;10.63;;;;;;;3.42;98.42;96078.53;5111382;28;20039;-45
2021/11/17 04:37:17;;;;;;;22.15;11.43;;;;;;;3.75;96.64;96077.63;5110716;28;20073;-45
2021/11/17 04:40:12;;;;;;;23.38;11.05;;;;;;;3.57;96.84;96088.25;5084245;28;20044;-48
2021/11/17 04:42:47;;;;;;;21.50;11.02;;;;;;;3.39;97.46;96084.44;5095997;28;20264;-46
2021/11/17 04:45:36;;;;;;;24.70;9.80;;;;;;;3.31;97.59;96072.47;5109542;28;20035;-48
2021/11/17 04:48:03;;;;;;;25.30;10.77;;;;;;;3.23;98.27;96083.78;5099090;28;20135;-46
2021/11/17 04:50:29;;;;;;;26.23;11.15;;;;;;;3.56;97.76;96073.28;5111676;28;20047;-46
2021/11/17 04:53:30;;;;;;;22.80;10.25;;;;;;;3.36;97.80;96080.44;5090828;28;20478;-45
2021/11/17 04:56:21;;;;;;;22.02;10.57;;;;;;;3.32;97.90;96084.78;5106642;28;20113;-45
2021/11/17 04:59:04;;;;;;;21.90;9.88;;;;;;;3.18;98.16;96070.44;5108732;28;20035;-45
2021/11/17 05:01:56;;;;;;;28.15;10.73;;;;;;;3.31;98.33;96067.09;5059982;28;20082;-46
2021/11/17 05:04:34;;;;;;;24.70;10.93;;;;;;;3.40;97.22;96065.41;5095701;28;20129;-46
2021/11/17 05:07:19;;;;;;;25.60;10.75;;;;;;;3.53;98.11;96063.16;5093826;28;20047;-47
2021/11/17 05:10:22;;;;;;;22.35;11.25;;;;;;;3.79;96.77;96066.34;5108598;28;20108;-48
2021/11/17 05:13:16;;;;;;;24.65;11.77;;;;;;;4.06;94.55;96071.91;5055861;28;20420;-47
2021/11/17 05:16:05;;;;;;;24.58;11.10;;;;;;;4.29;93.10;96075.66;5090962;28;20036;-46
2021/11/17 05:18:41;;;;;;;24.00;12.02;;;;;;;4.08;94.22;96069.75;5103509;28;20051;-47
2021/11/17 05:21:33;;;;;;;20.20;10.10;;;;;;;4.15;94.04;96074.75;5090838;28;20039;-47
2021/11/17 05:24:07;;;;;;;22.30;10.55;;;;;;;4.40;92.34;96066.38;5109569;27;20056;-49
2021/11/17 05:26:58;;;;;;;19.77;10.00;;;;;;;3.80;93.59;96073.28;5113538;28;20078;-51
2021/11/17 05:29:34;;;;;;;19.45;9.35;;;;;;;3.65;94.63;96082.31;5111091;28;20128;-47
2021/11/17 05:32:11;;;;;;;19.80;9.95;;;;;;;3.87;95.18;96074.56;5112588;28;20048;-47
2021/11/17 05:34:44;;;;;;;19.40;9.52;;;;;;;3.95;94.80;96073.13;5112455;28;20044;-48
2021/11/17 05:37:42;;;;;;;19.05;9.48;;;;;;;3.84;94.58;96069.78;5113192;28;20043;-46
2021/11/17 05:40:39;;;;;;;19.20;9.70;;;;;;;3.71;94.44;96075.81;5104510;27;20060;-46
2021/11/17 05:43:18;;;;;;;19.02;9.15;;;;;;;3.60;94.87;96069.75;5089027;28;20137;-48
2021/11/17 05:46:06;;;;;;;18.63;9.68;;;;;;;3.63;94.46;96073.75;5112432;28;20356;-46
2021/11/17 05:48:46;;;;;;;18.23;9.77;;;;;;;3.82;94.44;96085.31;5094092;28;20039;-49
2021/11/17 05:51:37;;;;;;;19.30;9.65;;;;;;;3.51;95.29;96087.53;5111629;28;20074;-46
2021/11/17 05:54:30;;;;;;;19.95;10.50;;;;;;;3.71;95.77;96083.84;5108973;27;20154;-45
2021/11/17 05:57:25;;;;;;;22.17;9.70;;;;;;;4.04;94.52;96094.72;5096049;28;20043;-47
2021/11/17 06:00:04;;;;;;;19.75;9.55;;;;;;;3.98;93.83;96097.44;5111292;28;20070;-46
2021/11/17 06:03:00;;;;;;;20.35;9.85;;;;;;;4.08;93.54;96101.09;5094465;28;20059;-47
2021/11/17 06:05:27;;;;;;;20.83;9.75;;;;;;;3.80;93.93;96098.16;5112638;28;20046;-47
2021/11/17 06:07:54;;;;;;;20.90;10.38;;;;;;;3.90;94.55;96099.94;5112578;28;20410;-46
2021/11/17 06:10:27;;;;;;;20.15;11.15;;;;;;;4.07;93.55;96110.22;5094722;28;20504;-46
2021/11/17 06:12:54;;;;;;;;;;;;;;;3.84;94.19;96103.78;5095918;28;20044;-49
2021/11/17 06:15:22;;;;;;;19.63;10.10;;;;;;;3.61;94.65;96102.69;5110710;28;19924;-47
2021/11/17 06:17:52;;;;;;;20.67;9.25;;;;;;;3.75;95.34;96098.25;5112910;28;20127;-47
2021/11/17 06:20:20;;;;;;;18.95;10.48;;;;;;;3.95;94.99;96103.34;5077246;28;20032;-46
2021/11/17 06:22:51;;;;;;;20.23;9.85;;;;;;;3.67;95.44;96114.91;5111231;28;20497;-48
2021/11/17 06:25:19;;;;;;;21.13;10.43;;;;;;;3.53;95.75;96105.97;5104236;28;20134;-50
2021/11/17 06:27:54;;;;;;;24.60;10.50;;;;;;;3.36;97.02;96114.41;5112894;28;20044;-47
2021/11/17 06:30:22;;;;;;;20.85;10.27;;;;;;;3.67;96.81;96114.91;5104698;28;20126;-51
2021/11/17 06:32:52;;;;;;;21.15;9.98;;;;;;;3.62;96.34;96114.97;5103252;28;20036;-46
2021/11/17 06:35:19;;;;;;;23.40;11.25;;;;;;;3.79;95.63;96119.88;5106205;28;20085;-48
2021/11/17 06:37:46;;;;;;;24.75;11.15;;;;;;;3.78;96.38;96119.09;5095550;28;20043;-45
2021/11/17 06:40:15;;;;;;;21.20;10.68;;;;;;;3.75;96.09;96117.78;5112685;28;20044;-49
2021/11/17 06:42:49;;;;;;;20.65;9.85;;;;;;;3.83;95.87;96120.91;5110428;28;20442;-46
2021/11/17 06:45:22;;;;;;;21.63;9.68;;;;;;;3.74;95.30;96140.25;5112249;28;20135;-47
2021/11/17 06:47:49;;;;;;;;;;;;;;;3.74;96.01;96132.25;5089481;28;20028;-46
2021/11/17 06:50:18;;;;;;;22.08;10.20;;;;;;;3.90;95.16;96134.72;5107350;28;20409;-50
2021/11/17 06:52:45;;;;;;;23.55;11.05;;;;;;;3.68;95.75;96130.69;5112310;28;20056;-44
2021/11/17 06:55:13;;;;;;;24.73;11.38;;;;;;;3.65;96.94;96133.94;5097955;28;20059;-50
2021/11/17 06:57:40;;;;;;;21.70;11.13;;;;;;;3.85;97.31;96140.16;5094758;28;20039;-46
2021/11/17 07:00:10;;;;;;;25.33;10.98;;;;;;;3.77;96.44;96143.44;5112498;28;20146;-49
2021/11/17 07:02:37;;;;;;;25.40;11.75;;;;;;;3.88;96.82;96140.38;5096384;27;20135;-47
2021/11/17 07:05:06;;;;;;;20.90;10.48;;;;;;;4.00;96.26;96137.31;5093484;28;20649;-46
2021/11/17 07:07:33;;;;;;;24.52;11.45;;;;;;;3.97;95.87;96148.59;5112600;28;20055;-50
2021/11/17 07:10:00;;;;;;;22.63;11.00;;;;;;;3.61;96.52;96142.81;5104700;28;20047;-45
2021/11/17 07:12:27;;;;;;;19.92;10.32;;;;;;;3.61;96.92;96146.28;5119695;27;20180;-49
2021/11/17 07:14:54;;;;;;;25.13;10.85;;;;;;;3.35;97.89;96152.91;5125491;27;20122;-45
2021/11/17 07:17:21;;;;;;;22.67;11.35;;;;;;;3.46;98.31;96149.88;5111928;28;20131;-47
2021/11/17 07:19:48;;;;;;;22.08;10.43;;;;;;;3.60;97.22;96154.56;5106073;28;20550;-45
2021/11/17 07:22:16;;;;;;;23.42;11.57;;;;;;;3.55;97.64;96160.00;5112000;28;20058;-46
2021/11/17 07:24:43;;;;;;;21.75;11.13;;;;;;;4.01;96.34;96165.69;5107743;28;20377;-46
2021/11/17 07:27:18;;;;;;;25.95;11.52;;;;;;;3.70;96.17;96160.63;5113394;27;20036;-47
2021/11/17 07:29:46;;;;;;;25.33;11.70;;;;;;;3.84;96.23;96165.34;5119214;27;20071;-47
2021/11/17 07:32:13;;;;;;;27.05;13.07;;;;;;;3.94;95.96;96171.38;5110747;28;20096;-46
2021/11/17 07:34:40;;;;;;;22.10;10.98;;;;;;;3.82;95.47;96167.50;5100526;28;20475;-47
2021/11/17 07:37:08;;;;;;;23.35;11.52;;;;;;;3.83;96.20;96169.88;5092901;28;20046;-45
2021/11/17 07:39:35;;;;;;;22.00;10.75;;;;;;;3.71;95.72;96167.59;5093812;28;20047;-45
2021/11/17 07:42:02;;;;;;;25.17;11.32;;;;;;;3.79;96.09;96163.50;5111094;28;20054;-46
2021/11/17 07:44:29;;;;;;;23.08;10.50;;;;;;;3.58;96.84;96170.13;5108470;28;20127;-46
2021/11/17 07:46:57;;;;;;;23.08;11.25;;;;;;;3.70;96.01;96175.88;5111902;28;20067;-46
2021/11/17 07:49:26;;;;;;;21.83;11.80;;;;;;;4.06;95.40;96172.84;5110333;28;20047;-46
2021/11/17 07:51:55;;;;;;;19.95;11.80;;;;;;;3.95;95.14;96181.00;5109771;28;20501;-46
2021/11/17 07:54:24;;;;;;;21.17;10.77;;;;;;;4.37;93.85;96174.09;5107064;28;20040;-43
2021/11/17 07:56:53;;;;;;;23.42;10.88;;;;;;;4.45;93.67;96173.47;5091092;28;20545;-51
2021/11/17 07:59:23;;;;;;;20.92;11.30;;;;;;;4.24;93.79;96176.69;5110114;28;20050;-47
2021/11/17 08:01:54;;;;;;;25.13;11.15;;;;;;;4.15;93.59;96189.91;5089440;28;20044;-47
2021/11/17 08:04:24;;;;;;;23.08;11.70;;;;;;;3.89;94.73;96184.78;5106467;27;20407;-48
2021/11/17 08:06:52;;;;;;;24.55;12.27;;;;;;;3.86;94.79;96188.03;5119210;27;20134;-48
2021/11/17 08:09:20;;;;;;;21.80;10.93;;;;;;;4.04;94.89;96196.44;5108515;28;20110;-45
2021/11/17 08:11:47;;;;;;;19.80;10.15;;;;;;;3.74;95.06;96185.75;5073218;28;20093;-46
2021/11/17 08:14:15;;;;;;;24.38;10.25;;;;;;;3.86;95.78;96192.59;5099975;28;20146;-46
2021/11/17 08:16:42;;;;;;;24.15;11.57;;;;;;;3.81;95.41;96185.44;5111745;28;20130;-47
2021/11/17 08:19:09;;;;;;;21.40;12.20;;;;;;;4.10;95.20;96184.59;5098055;28;20036;-47
2021/11/17 08:21:36;;;;;;;21.23;10.82;;;;;;;3.90;95.11;96188.28;5109791;28;20043;-49
2021/11/17 08:24:03;;;;;;;21.00;11.15;;;;;;;4.15;94.65;96195.25;5106743;28;20063;-52
2021/11/17 08:26:31;;;;;;;17.65;9.98;;;;;;;4.05;93.60;96198.84;5109879;28;20078;-45
2021/11/17 08:28:58;;;;;;;19.80;9.88;;;;;;;3.87;93.52;96192.34;5109522;28;20062;-49
2021/11/17 08:31:25;;;;;;;19.77;9.80;;;;;;;3.68;94.40;96194.13;5111202;28;20047;-45
2021/11/17 08:33:53;;;;;;;18.65;9.73;;;;;;;3.75;95.18;96214.09;5105139;28;20056;-51
2021/11/17 08:36:22;;;;;;;20.52;10.60;;;;;;;4.03;94.60;96217.06;5111682;28;20401;-46
2021/11/17 08:38:50;;;;;;;20.17;10.20;;;;;;;4.05;93.98;96227.50;5111736;28;20040;-44
2021/11/17 08:41:18;;;;;;;19.65;9.50;;;;;;;4.10;93.79;96216.75;5106446;28;20062;-44
2021/11/17 08:43:45;;;;;;;19.10;9.77;;;;;;;4.15;93.53;96228.19;5110003;28;20105;-46
2021/11/17 08:46:12;;;;;;;19.05;9.70;;;;;;;4.15;93.08;96230.06;5097667;28;20122;-45
2021/11/17 08:48:41;;;;;;;18.92;9.98;;;;;;;4.06;93.32;96223.72;5106829;28;20032;-44
2021/11/17 08:51:14;;;;;;;21.25;9.75;;;;;;;4.01;94.15;96234.50;5067555;28;20044;-42
2021/11/17 08:53:43;;;;;;;17.75;9.10;;;;;;;3.95;94.27;96236.41;5108832;28;20042;-49
2021/11/17 08:56:11;;;;;;;18.52;9.82;;;;;;;3.94;94.27;96235.63;5112009;27;20050;-44
2021/11/17 08:58:39;;;;;;;17.80;9.13;;;;;;;3.67;94.78;96241.50;5095656;28;20084;-44
2021/11/17 09:01:08;;;;;;;14.73;7.63;;;;;;;3.53;95.27;96242.41;5115653;28;20453;-44
2021/11/17 09:03:36;;;;;;;16.92;9.70;;;;;;;3.48;94.90;96241.38;5110591;28;20039;-43
2021/11/17 09:06:06;;;;;;;19.30;10.32;;;;;;;3.62;95.66;96246.06;5121846;27;20035;-50
2021/11/17 09:08:34;;;;;;;17.92;8.77;;;;;;;3.89;94.54;96241.00;5100613;28;20092;-44
2021/11/17 09:11:07;;;;;;;20.02;10.18;;;;;;;3.59;96.17;96249.31;5080413;28;20146;-49
2021/11/17 09:13:35;;;;;;;16.95;9.43;;;;;;;3.79;95.13;96259.03;5112349;28;20043;-48
2021/11/17 09:16:02;;;;;;;23.38;11.40;;;;;;;3.92;94.92;96253.84;5114321;28;20059;-49
2021/11/17 09:18:33;;;;;;;17.85;9.57;;;;;;;4.07;94.23;96262.81;5096356;28;20047;-44
2021/11/17 09:21:03;;;;;;;18.40;9.95;;;;;;;3.82;94.75;96253.13;5110979;27;20065;-44
2021/11/17 09:23:30;;;;;;;21.45;10.93;;;;;;;3.60;96.95;96251.69;5102034;28;20051;-49
2021/11/17 09:26:00;;;;;;;22.85;9.82;;;;;;;3.51;97.27;96256.84;5121622;27;20049;-44
2021/11/17 09:28:31;;;;;;;21.45;10.60;;;;;;;3.73;96.75;96255.59;5118699;27;20039;-49
2021/11/17 09:30:58;;;;;;;21.15;10.32;;;;;;;3.63;97.40;96253.81;5108617;27;20104;-49
2021/11/17 09:33:32;;;;;;;22.50;9.52;;;;;;;3.70;97.05;96248.94;5110511;28;20124;-49
2021/11/17 09:36:00;;;;;;;24.42;10.75;;;;;;;3.99;96.46;96262.34;5113942;28;20441;-53
2021/11/17 09:38:28;;;;;;;22.00;10.40;;;;;;;3.99;96.44;96264.22;5119430;27;20492;-52
2021/11/17 09:40:59;;;;;;;19.58;10.15;;;;;;;3.63;96.37;96264.50;5094501;28;20079;-53
2021/11/17 09:43:34;;;;;;;22.30;10.65;;;;;;;3.94;96.17;96256.25;5112578;27;20043;-54
2021/11/17 09:46:01;;;;;;;18.13;9.32;;;;;;;3.93;95.45;96266.16;5114662;28;20161;-53
2021/11/17 09:48:34;;;;;;;20.38;10.73;;;;;;;4.26;94.76;96266.38;5093027;28;20805;-53
2021/11/17 09:51:04;;;;;;;16.67;9.02;;;;;;;4.27;93.59;96261.81;5081844;27;20051;-50
2021/11/17 09:53:40;;;;;;;18.00;8.70;;;;;;;4.02;94.34;96268.22;5117791;27;20098;-51
2021/11/17 09:56:19;;;;;;;21.05;9.90;;;;;;;3.89;95.29;96267.78;5096651;27;20062;-50
2021/11/17 09:58:56;;;;;;;21.88;11.02;;;;;;;3.91;95.98;96273.66;5075633;28;20113;-51
2021/11/17 10:01:31;;;;;;;21.38;10.80;;;;;;;3.99;95.72;96270.38;5101121;28;20048;-50
2021/11/17 10:04:14;;;;;;;18.02;9.85;;;;;;;3.94;96.06;96277.66;5112641;28;20540;-49
2021/11/17 10:12:52;;;;;;;17.90;8.77;;;;;;;4.42;93.05;96283.91;5106356;28;20054;-44
2021/11/17 10:15:22;;;;;;;13.75;7.05;;;;;;;4.45;92.29;96290.56;5078939;28;20047;-48
2021/11/17 10:18:07;;;;;;;13.25;7.88;;;;;;;4.52;91.28;96292.88;5115625;27;20113;-48
2021/11/17 10:20:57;;;;;;;12.95;6.82;;;;;;;4.37;91.29;96294.66;5102752;28;20063;-51
2021/11/17 10:23:50;;;;;;;12.25;5.97;;;;;;;4.14;92.34;96300.78;5094071;28;20134;-52
2021/11/17 10:26:17;;;;;;;11.80;7.03;;;;;;;4.15;92.54;96297.00;5113430;28;20043;-49
2021/11/17 10:28:58;;;;;;;13.85;7.28;;;;;;;4.31;91.88;96298.47;5115649;27;20114;-50
2021/11/17 10:31:46;;;;;;;12.02;6.70;;;;;;;4.36;91.43;96290.38;5118530;27;20162;-46
2021/11/17 10:34:35;;;;;;;11.77;6.55;;;;;;;4.20;91.66;96283.59;5113604;27;20557;-46
2021/11/17 10:37:10;;;;;;;12.90;6.95;;;;;;;4.14;92.13;96276.69;5095437;28;20123;-44
2021/11/17 10:39:37;;;;;;;10.80;6.47;;;;;;;4.11;91.60;96279.91;5112022;28;20225;-47
2021/11/17 10:42:08;;;;;;;13.38;6.68;;;;;;;4.05;91.56;96273.81;5094596;28;20105;-43
2021/11/17 10:44:53;;;;;;;11.80;6.70;;;;;;;4.00;92.69;96271.19;5111714;28;20047;-43
2021/11/17 10:47:45;;;;;;;12.45;7.22;;;;;;;4.29;91.81;96273.03;5111771;28;20040;-43
2021/11/17 10:50:13;;;;;;;14.20;7.00;;;;;;;4.26;92.25;96271.75;5109164;28;20066;-44
2021/11/17 10:52:52;;;;;;;13.55;7.07;;;;;;;4.19;92.77;96263.22;5107938;27;20043;-48
2021/11/17 10:55:51;;;;;;;13.00;7.55;;;;;;;4.04;93.45;96258.03;5098396;27;20047;-47
2021/11/17 10:58:24;;;;;;;17.05;8.27;;;;;;;4.30;92.76;96261.25;5089456;28;20032;-52
2021/11/17 11:00:58;;;;;;;10.50;5.38;;;;;;;4.17;91.86;96265.41;5111192;28;20043;-54
2021/11/17 11:03:51;;;;;;;10.95;6.43;;;;;;;4.18;91.91;96258.97;5105475;28;20079;-50
2021/11/17 11:06:44;;;;;;;8.60;5.03;;;;;;;4.24;90.62;96255.16;5102925;28;20365;-52
2021/11/17 11:10:06;;;;;;;9.68;5.32;;;;;;;4.34;90.47;96259.59;5111553;27;20085;-50
2021/11/17 11:12:35;;;;;;;8.20;4.20;;;;;;;4.29;89.12;96257.78;5103356;28;20074;-53
2021/11/17 11:15:13;;;;;;;12.27;5.05;;;;;;;4.49;89.37;96248.72;5110687;28;20047;-48
2021/11/17 11:18:01;;;;;;;6.38;3.60;;;;;;;4.71;86.99;96247.38;5121006;27;20085;-45
2021/11/17 11:20:37;;;;;;;6.70;3.65;;;;;;;4.51;86.50;96253.78;5088835;28;20142;-45
2021/11/17 11:23:07;;;;;;;9.55;4.07;;;;;;;4.54;86.93;96259.38;5097340;27;20061;-47
2021/11/17 11:25:40;;;;;;;8.82;4.35;;;;;;;4.65;86.72;96252.81;5107746;27;20209;-48
2021/11/17 11:28:22;;;;;;;6.70;4.18;;;;;;;4.68;86.38;96256.81;5118979;27;20146;-45
2021/11/17 11:31:06;;;;;;;7.78;4.00;;;;;;;4.87;86.14;96254.16;5102768;27;20091;-48
2021/11/17 11:33:48;;;;;;;8.25;4.93;;;;;;;4.82;84.79;96254.25;5108146;27;20055;-47
2021/11/17 11:36:15;;;;;;;7.50;3.97;;;;;;;4.71;86.23;96252.75;5098767;28;20364;-47
2021/11/17 11:38:44;;;;;;;7.85;4.60;;;;;;;4.77;86.17;96241.69;5111466;28;20087;-46
2021/11/17 11:41:17;;;;;;;10.82;4.65;;;;;;;4.48;87.34;96249.00;5093469;28;20117;-45
2021/11/17 11:43:45;;;;;;;9.68;4.57;;;;;;;4.70;87.27;96241.25;5104791;27;20044;-45
2021/11/17 11:46:29;;;;;;;8.25;4.68;;;;;;;4.84;86.02;96241.31;5117458;27;20036;-46
2021/11/17 11:49:01;;;;;;;8.63;5.10;;;;;;;4.83;86.17;96234.38;5109663;28;20097;-46
2021/11/17 11:51:58;;;;;;;8.10;4.15;;;;;;;4.77;84.93;96243.56;5110626;28;20039;-48
2021/11/17 11:54:29;;;;;;;7.00;4.05;;;;;;;4.54;85.87;96240.63;5075369;28;20052;-46
2021/11/17 11:57:02;;;;;;;7.63;4.38;;;;;;;4.72;86.29;96240.97;5110976;27;20403;-46
2021/11/17 11:59:30;;;;;;;7.90;4.60;;;;;;;4.80;85.07;96241.09;5101818;27;20071;-46
2021/11/17 12:02:09;;;;;;;6.22;3.75;;;;;;;4.85;84.93;96235.69;5115289;27;20039;-47
2021/11/17 12:04:47;;;;;;;12.75;6.03;;;;;;;4.97;84.31;96245.19;5108947;28;20044;-45
2021/11/17 12:07:19;;;;;;;7.38;3.33;;;;;;;4.99;83.11;96246.50;5104536;28;20043;-46
2021/11/17 12:10:05;;;;;;;7.25;3.38;;;;;;;4.97;83.05;96239.81;5106780;28;20061;-47
2021/11/17 12:12:36;;;;;;;5.78;3.25;;;;;;;5.31;82.26;96245.00;5107283;28;20047;-48
2021/11/17 12:15:22;;;;;;;8.30;4.40;;;;;;;5.28;82.59;96238.31;5111694;28;20112;-45
2021/11/17 12:18:18;;;;;;;6.70;3.72;;;;;;;5.33;81.66;96246.31;5111217;28;20065;-47
2021/11/17 12:21:04;;;;;;;5.97;3.42;;;;;;;5.26;82.07;96240.50;5091131;28;20039;-46
2021/11/17 12:23:35;;;;;;;6.03;3.50;;;;;;;5.15;82.59;96247.88;5085085;28;20044;-47
2021/11/17 12:26:28;;;;;;;6.57;4.40;;;;;;;5.01;82.79;96246.22;5111580;28;20035;-48
2021/11/17 12:29:01;;;;;;;5.15;3.15;;;;;;;4.90;83.63;96249.00;5088871;28;20482;-49
2021/11/17 12:31:36;;;;;;;6.43;3.25;;;;;;;4.81;83.76;96255.31;5089616;28;20202;-50
2021/11/17 12:34:12;;;;;;;6.93;3.53;;;;;;;4.92;83.27;96238.81;5106553;28;20076;-47
2021/11/17 12:36:58;;;;;;;5.50;3.25;;;;;;;4.86;83.22;96249.88;5115861;28;20428;-48
2021/11/17 12:39:30;;;;;;;5.72;3.53;;;;;;;5.05;82.95;96249.91;5114659;27;20043;-49
2021/11/17 12:42:00;;;;;;;5.22;3.35;;;;;;;5.02;82.95;96242.44;5121844;27;20078;-50
2021/11/17 12:44:31;;;;;;;8.38;3.30;;;;;;;5.17;82.37;96250.28;5120432;27;20073;-49
2021/11/17 12:46:58;;;;;;;7.43;3.38;;;;;;;4.79;83.59;96246.78;5120051;27;20135;-47
2021/11/17 12:49:27;;;;;;;6.35;3.55;;;;;;;4.88;84.06;96247.72;5106619;27;20548;-49
2021/11/17 12:52:00;;;;;;;6.00;3.25;;;;;;;5.07;83.69;96239.69;5123298;27;20542;-46
2021/11/17 12:54:31;;;;;;;6.82;3.47;;;;;;;5.06;83.34;96244.25;5113161;27;20122;-47
2021/11/17 12:57:23;;;;;;;6.35;3.70;;;;;;;5.11;83.24;96241.50;5104823;28;20450;-47
2021/11/17 12:59:50;;;;;;;5.32;3.40;;;;;;;5.09;83.39;96240.19;5112392;28;20050;-49
2021/11/17 13:02:23;;;;;;;7.50;3.25;;;;;;;5.24;83.38;96247.25;5103440;28;20414;-47
2021/11/17 13:05:31;;;;;;;6.72;3.28;;;;;;;5.19;83.58;96250.78;5109749;28;20047;-46
2021/11/17 13:08:04;;;;;;;5.47;3.10;;;;;;;5.14;83.79;96250.88;5071129;27;20078;-48
2021/11/17 13:10:38;;;;;;;6.15;3.13;;;;;;;5.09;84.08;96253.63;5084786;28;20036;-49
2021/11/17 13:13:11;;;;;;;5.55;3.40;;;;;;;5.08;84.48;96249.34;5113886;27;20126;-45
2021/11/17 13:15:52;;;;;;;5.65;3.15;;;;;;;5.20;84.05;96249.72;5116778;27;20457;-54
2021/11/17 13:18:54;;;;;;;6.40;3.75;;;;;;;5.09;84.48;96254.41;5107446;27;20047;-53
2021/11/17 13:21:20;;;;;;;6.43;3.45;;;;;;;5.18;84.17;96251.88;5100535;27;20039;-50
2021/11/17 13:24:26;;;;;;;6.07;3.40;;;;;;;5.15;84.48;96252.47;5130340;22;20043;-56
2021/11/17 13:27:07;;;;;;;7.03;4.55;;;;;;;4.95;84.47;96250.84;5091537;28;20093;-52
2021/11/17 13:29:58;;;;;;;7.97;4.05;;;;;;;4.98;84.93;96257.53;5078279;28;20040;-58
2021/11/17 13:32:25;;;;;;;5.43;3.20;;;;;;;4.77;84.59;96247.03;5073471;28;20131;-54
2021/11/17 13:34:56;;;;;;;6.72;3.20;;;;;;;4.89;84.94;96252.78;5088809;28;20040;-56
2021/11/17 13:37:34;;;;;;;8.48;3.78;;;;;;;4.86;85.19;96247.22;5082613;28;20037;-55
2021/11/17 13:40:05;;;;;;;5.60;3.63;;;;;;;4.98;84.88;96252.16;5078564;28;20126;-55
2021/11/17 13:42:32;;;;;;;6.03;3.00;;;;;;;4.96;84.82;96255.13;5079565;28;20136;-54
2021/11/17 13:45:03;;;;;;;5.95;3.65;;;;;;;5.07;84.72;96258.47;5077759;28;20038;-55
2021/11/17 13:47:31;;;;;;;6.25;3.47;;;;;;;5.18;84.84;96251.88;5065913;28;20055;-56
2021/11/17 13:50:00;;;;;;;5.95;3.30;;;;;;;5.08;84.58;96257.41;5056334;28;20120;-55
2021/11/17 13:52:32;;;;;;;5.07;2.95;;;;;;;5.06;84.30;96256.88;5072236;28;20048;-54
2021/11/17 13:55:06;;;;;;;6.32;3.42;;;;;;;5.17;84.27;96258.34;5074652;28;20040;-54
2021/11/17 13:57:33;;;;;;;5.03;2.85;;;;;;;5.21;83.18;96259.34;5074054;28;20501;-55
2021/11/17 14:00:03;;;;;;;5.10;2.90;;;;;;;5.17;82.59;96269.06;5077842;28;20040;-57
2021/11/17 14:02:37;;;;;;;5.15;3.30;;;;;;;5.10;82.98;96272.13;5079466;28;20047;-56
2021/11/17 14:05:06;;;;;;;5.78;2.78;;;;;;;4.89;83.19;96287.66;5073817;28;20291;-55
2021/11/17 14:07:34;;;;;;;5.20;2.85;;;;;;;4.81;84.06;96280.25;5092657;28;20044;-53
2021/11/17 14:10:04;;;;;;;5.47;3.13;;;;;;;4.86;84.28;96277.50;5091753;28;20067;-54
2021/11/17 14:12:31;;;;;;;7.68;3.38;;;;;;;4.93;84.05;96277.16;5054534;28;20052;-55
2021/11/17 14:14:58;;;;;;;6.88;3.50;;;;;;;4.97;84.03;96277.38;5079950;28;20221;-54
2021/11/17 14:17:26;;;;;;;6.97;3.83;;;;;;;4.89;84.01;96276.91;5079202;28;20052;-55
2021/11/17 14:19:57;;;;;;;5.68;3.35;;;;;;;4.75;84.39;96286.75;5072046;28;20119;-53
2021/11/17 14:22:24;;;;;;;8.38;4.25;;;;;;;4.74;84.92;96292.38;5054896;28;20502;-52
2021/11/17 14:24:56;;;;;;;7.70;4.20;;;;;;;4.73;85.08;96291.59;5072652;28;20068;-54
2021/11/17 14:27:24;;;;;;;8.00;4.28;;;;;;;4.77;85.48;96295.28;5073852;28;20084;-55
2021/11/17 14:30:00;;;;;;;7.63;3.60;;;;;;;4.52;85.60;96298.25;5073330;28;20480;-54
2021/11/17 14:32:33;;;;;;;7.88;4.18;;;;;;;4.30;86.96;96299.56;5071443;28;20139;-55
2021/11/17 14:35:01;;;;;;;7.35;3.90;;;;;;;4.16;86.78;96302.09;5072995;28;20497;-56
2021/11/17 14:37:28;;;;;;;6.80;4.30;;;;;;;4.30;86.92;96304.91;5072894;28;20052;-56
2021/11/17 14:39:56;;;;;;;7.50;4.15;;;;;;;4.21;86.94;96315.44;5071850;28;20045;-57
2021/11/17 14:42:23;;;;;;;7.55;4.63;;;;;;;4.24;86.38;96316.75;5072500;28;20481;-54
2021/11/17 14:44:52;;;;;;;6.85;3.65;;;;;;;4.18;86.08;96315.19;5072882;28;20068;-52
2021/11/17 14:47:20;;;;;;;9.52;4.75;;;;;;;4.18;86.15;96317.88;5072882;28;20079;-50